| time (UTC) | temp F | wind direction | speed MPH | gust MPH | rain 1hr in | rain 24hr in | rain mn in | humidity % | barometer mb |
| 20260901114807 | 80 | 198 | 0.0 | 1.0 | 0.00 | 0.00 | 0.00 | 74 | 1017.7 |
| 20260901114302 | 80 | 192 | 0.0 | 0.0 | 0.00 | 0.00 | 0.00 | 73 | 1017.8 |
| 20260901113801 | 80 | 198 | 0.0 | 1.0 | 0.00 | 0.00 | 0.00 | 73 | 1017.5 |
| 20260901113255 | 81 | 203 | 0.0 | 0.0 | 0.00 | 0.00 | 0.00 | 73 | 1017.5 |
| 20260901112750 | 81 | 195 | 1.0 | 1.0 | 0.00 | 0.00 | 0.00 | 72 | 1017.5 |
| 20260901112249 | 81 | 173 | 2.0 | 3.0 | 0.00 | 0.00 | 0.00 | 72 | 1017.5 |
| 20260901111738 | 81 | 191 | 1.0 | 1.0 | 0.00 | 0.00 | 0.00 | 72 | 1017.5 |
| 20260901111237 | 81 | 176 | 3.0 | 3.0 | 0.00 | 0.00 | 0.00 | 72 | 1017.3 |
| 20260901110731 | 81 | 206 | 2.0 | 2.0 | 0.00 | 0.00 | 0.00 | 72 | 1017.3 |
| 20260901110227 | 80 | 192 | 0.0 | 0.0 | 0.00 | 0.00 | 0.00 | 72 | 1017.2 |
| 20260901105723 | 81 | 197 | 0.0 | 0.0 | 0.00 | 0.00 | 0.00 | 72 | 1017.3 |
| 20260901105223 | 81 | 197 | 0.0 | 0.0 | 0.00 | 0.00 | 0.00 | 71 | 1017.3 |
| 20260901104719 | 81 | 198 | 0.0 | 0.0 | 0.00 | 0.00 | 0.00 | 71 | 1017.4 |
| 20260901104215 | 81 | 179 | 1.0 | 2.0 | 0.00 | 0.00 | 0.00 | 71 | 1017.1 |
| 20260901103714 | 81 | 194 | 0.0 | 0.0 | 0.00 | 0.00 | 0.00 | 71 | 1017.4 |
| 20260901103209 | 81 | 183 | 1.0 | 1.0 | 0.00 | 0.00 | 0.00 | 71 | 1017.3 |
| 20260901102704 | 81 | 182 | 1.0 | 2.0 | 0.00 | 0.00 | 0.00 | 70 | 1017.7 |
| 20260901102203 | 81 | 201 | 1.0 | 1.0 | 0.00 | 0.00 | 0.00 | 70 | 1017.4 |
| 20260901101659 | 81 | 193 | 0.0 | 0.0 | 0.00 | 0.00 | 0.00 | 70 | 1017.3 |
| 20260901101158 | 81 | 182 | 0.0 | 1.0 | 0.00 | 0.00 | 0.00 | 70 | 1017.6 |
| 20260901100653 | 81 | 201 | 1.0 | 1.0 | 0.00 | 0.00 | 0.00 | 69 | 1017.4 |
| 20260901100147 | 81 | 187 | 0.0 | 0.0 | 0.00 | 0.00 | 0.00 | 69 | 1017.5 |
| 20260901095646 | 81 | 193 | 0.0 | 0.0 | 0.00 | 0.00 | 0.00 | 69 | 1017.6 |
| 20260901095144 | 81 | 185 | 0.0 | 1.0 | 0.00 | 0.00 | 0.00 | 68 | 1017.5 |
| 20260901094639 | 82 | 192 | 0.0 | 1.0 | 0.00 | 0.00 | 0.00 | 68 | 1017.6 |
| 20260901094138 | 82 | 200 | 1.0 | 1.0 | 0.00 | 0.00 | 0.00 | 68 | 1017.5 |
| 20260901093633 | 82 | 146 | 0.0 | 1.0 | 0.00 | 0.00 | 0.00 | 67 | 1017.4 |
| 20260901093127 | 82 | 198 | 0.0 | 0.0 | 0.00 | 0.00 | 0.00 | 67 | 1017.5 |
| 20260901092623 | 82 | 179 | 0.0 | 0.0 | 0.00 | 0.00 | 0.00 | 67 | 1017.6 |
| 20260901092119 | 82 | 133 | 0.0 | 0.0 | 0.00 | 0.00 | 0.00 | 67 | 1017.6 |
| 20260901091614 | 82 | 149 | 0.0 | 1.0 | 0.00 | 0.00 | 0.00 | 66 | 1017.7 |
| 20260901091109 | 82 | 183 | 0.0 | 0.0 | 0.00 | 0.00 | 0.00 | 66 | 1017.6 |
| 20260901090609 | 83 | 176 | 1.0 | 1.0 | 0.00 | 0.00 | 0.00 | 65 | 1017.4 |
| 20260901090105 | 83 | 189 | 0.0 | 1.0 | 0.00 | 0.00 | 0.00 | 65 | 1017.2 |
| 20260901085600 | 83 | 187 | 0.0 | 0.0 | 0.00 | 0.00 | 0.00 | 65 | 1017.3 |
| 20260901085056 | 83 | 190 | 1.0 | 1.0 | 0.00 | 0.00 | 0.00 | 64 | 1017.2 |
| 20260901084552 | 83 | 192 | 1.0 | 2.0 | 0.00 | 0.00 | 0.00 | 64 | 1017.2 |
| 20260901084048 | 84 | 194 | 1.0 | 1.0 | 0.00 | 0.00 | 0.00 | 63 | 1017.3 |
| 20260901083548 | 84 | 196 | 0.0 | 1.0 | 0.00 | 0.00 | 0.00 | 63 | 1017.2 |
| 20260901083046 | 84 | 162 | 1.0 | 1.0 | 0.00 | 0.00 | 0.00 | 63 | 1017.1 |
| 20260901082541 | 84 | 185 | 0.0 | 1.0 | 0.00 | 0.00 | 0.00 | 62 | 1017.3 |
| 20260901082037 | 84 | 198 | 1.0 | 1.0 | 0.00 | 0.00 | 0.00 | 62 | 1017.0 |
| 20260901081531 | 84 | 199 | 1.0 | 1.0 | 0.00 | 0.00 | 0.00 | 62 | 1017.2 |
| 20260901081026 | 84 | 197 | 0.0 | 1.0 | 0.00 | 0.00 | 0.00 | 62 | 1017.3 |
| 20260901080525 | 84 | 204 | 3.0 | 3.0 | 0.00 | 0.00 | 0.00 | 61 | 1017.3 |
| 20260901080020 | 84 | 181 | 2.0 | 2.0 | 0.00 | 0.00 | 0.00 | 61 | 1017.1 |
| 20260901075516 | 84 | 195 | 0.0 | 1.0 | 0.00 | 0.00 | 0.00 | 61 | 1017.1 |
| 20260901075015 | 84 | 183 | 1.0 | 1.0 | 0.00 | 0.00 | 0.00 | 61 | 1017.1 |
| 20260901074514 | 84 | 177 | 2.0 | 3.0 | 0.00 | 0.00 | 0.00 | 61 | 1017.0 |
| 20260901074009 | 84 | 193 | 1.0 | 2.0 | 0.00 | 0.00 | 0.00 | 62 | 1017.1 |
| 20260901073507 | 84 | 193 | 1.0 | 1.0 | 0.00 | 0.00 | 0.00 | 62 | 1017.0 |
| 20260901073001 | 85 | 189 | 1.0 | 1.0 | 0.00 | 0.00 | 0.00 | 61 | 1017.3 |
| 20260901072456 | 85 | 144 | 2.0 | 2.0 | 0.00 | 0.00 | 0.00 | 61 | 1017.3 |
| 20260901071951 | 85 | 166 | 1.0 | 2.0 | 0.00 | 0.00 | 0.00 | 61 | 1017.0 |
| 20260901071450 | 85 | 189 | 1.0 | 1.0 | 0.00 | 0.00 | 0.00 | 62 | 1017.0 |
| 20260901070949 | 85 | 188 | 0.0 | 1.0 | 0.00 | 0.00 | 0.00 | 62 | 1017.1 |
| 20260901070445 | 85 | 173 | 1.0 | 1.0 | 0.00 | 0.00 | 0.00 | 61 | 1017.1 |
| 20260901065943 | 85 | 205 | 1.0 | 2.0 | 0.00 | 0.00 | 0.00 | 61 | 1017.1 |
| 20260901065439 | 86 | 190 | 0.0 | 0.0 | 0.00 | 0.00 | 0.00 | 61 | 1017.1 |
| 20260901064934 | 86 | 161 | 1.0 | 1.0 | 0.00 | 0.00 | 0.00 | 60 | 1017.0 |
| 20260901064431 | 86 | 186 | 1.0 | 2.0 | 0.00 | 0.00 | 0.00 | 60 | 1016.9 |
| 20260901063927 | 86 | 189 | 0.0 | 1.0 | 0.00 | 0.00 | 0.00 | 60 | 1016.8 |
| 20260901063424 | 86 | 180 | 0.0 | 1.0 | 0.00 | 0.00 | 0.00 | 60 | 1017.0 |
| 20260901062920 | 86 | 175 | 0.0 | 1.0 | 0.00 | 0.00 | 0.00 | 59 | 1016.9 |
| 20260901062415 | 86 | 182 | 0.0 | 1.0 | 0.00 | 0.00 | 0.00 | 59 | 1017.0 |
| 20260901061911 | 86 | 178 | 2.0 | 3.0 | 0.00 | 0.00 | 0.00 | 59 | 1016.8 |
| 20260901061407 | 86 | 148 | 2.0 | 2.0 | 0.00 | 0.00 | 0.00 | 58 | 1016.8 |
| 20260901060901 | 87 | 170 | 0.0 | 0.0 | 0.00 | 0.00 | 0.00 | 57 | 1016.8 |
| 20260901060357 | 86 | 178 | 1.0 | 1.0 | 0.00 | 0.00 | 0.00 | 57 | 1016.7 |
| 20260901055856 | 87 | 203 | 1.0 | 2.0 | 0.00 | 0.00 | 0.00 | 57 | 1016.6 |
| 20260901055353 | 87 | 176 | 1.0 | 2.0 | 0.00 | 0.00 | 0.00 | 56 | 1016.6 |
| 20260901054849 | 87 | 182 | 2.0 | 2.0 | 0.00 | 0.00 | 0.00 | 56 | 1016.7 |
| 20260901054346 | 87 | 174 | 2.0 | 2.0 | 0.00 | 0.00 | 0.00 | 55 | 1016.5 |
| 20260901053842 | 87 | 115 | 6.0 | 8.0 | 0.00 | 0.00 | 0.00 | 55 | 1016.4 |
| 20260901053337 | 87 | 169 | 5.0 | 6.0 | 0.00 | 0.00 | 0.00 | 55 | 1016.3 |
| 20260901052833 | 87 | 120 | 1.0 | 2.0 | 0.00 | 0.00 | 0.00 | 55 | 1016.4 |
| 20260901052328 | 87 | 152 | 2.0 | 3.0 | 0.00 | 0.00 | 0.00 | 54 | 1016.3 |
| 20260901051826 | 87 | 139 | 3.0 | 5.0 | 0.00 | 0.00 | 0.00 | 54 | 1016.1 |
| 20260901051322 | 88 | 171 | 3.0 | 5.0 | 0.00 | 0.00 | 0.00 | 53 | 1016.3 |
| 20260901050817 | 88 | 167 | 3.0 | 6.0 | 0.00 | 0.00 | 0.00 | 53 | 1016.3 |
| 20260901050313 | 87 | 180 | 1.0 | 1.0 | 0.00 | 0.00 | 0.00 | 54 | 1016.3 |
| 20260901045808 | 87 | 156 | 1.0 | 1.0 | 0.00 | 0.00 | 0.00 | 54 | 1016.1 |
| 20260901045302 | 87 | 166 | 0.0 | 1.0 | 0.00 | 0.00 | 0.00 | 55 | 1016.1 |
| 20260901044757 | 86 | 158 | 0.0 | 1.0 | 0.00 | 0.00 | 0.00 | 55 | 1016.0 |
| 20260901044253 | 86 | 190 | 0.0 | 0.0 | 0.00 | 0.00 | 0.00 | 56 | 1016.2 |
| 20260901043749 | 87 | 190 | 0.0 | 0.0 | 0.00 | 0.00 | 0.00 | 57 | 1016.0 |
| 20260901043244 | 87 | 181 | 0.0 | 0.0 | 0.00 | 0.00 | 0.00 | 56 | 1016.2 |
| 20260901042738 | 87 | 189 | 0.0 | 0.0 | 0.00 | 0.00 | 0.00 | 55 | 1016.2 |
| 20260901042238 | 87 | 182 | 0.0 | 0.0 | 0.00 | 0.00 | 0.00 | 55 | 1016.1 |
| 20260901041734 | 86 | 138 | 0.0 | 0.0 | 0.00 | 0.00 | 0.00 | 55 | 1016.0 |
| 20260901041234 | 87 | 204 | 0.0 | 0.0 | 0.00 | 0.00 | 0.00 | 54 | 1016.0 |
| 20260901040729 | 87 | 198 | 0.0 | 0.0 | 0.00 | 0.00 | 0.00 | 53 | 1015.6 |
| 20260901040228 | 88 | 192 | 0.0 | 0.0 | 0.00 | 0.00 | 0.00 | 52 | 1016.0 |
| 20260901035727 | 87 | 184 | 0.0 | 0.0 | 0.00 | 0.00 | 0.00 | 52 | 1015.9 |
| 20260901035226 | 88 | 191 | 0.0 | 0.0 | 0.00 | 0.00 | 0.00 | 52 | 1016.0 |
| 20260901034725 | 88 | 179 | 0.0 | 0.0 | 0.00 | 0.00 | 0.00 | 51 | 1016.0 |
| 20260901034220 | 89 | 160 | 0.0 | 0.0 | 0.00 | 0.00 | 0.00 | 50 | 1015.8 |
| 20260901033720 | 88 | 175 | 0.0 | 0.0 | 0.00 | 0.00 | 0.00 | 50 | 1015.8 |
| 20260901033219 | 87 | 200 | 0.0 | 0.0 | 0.00 | 0.00 | 0.00 | 50 | 1015.8 |
| 20260901032718 | 88 | 200 | 0.0 | 0.0 | 0.00 | 0.00 | 0.00 | 49 | 1015.8 |
| 20260901032212 | 89 | 199 | 0.0 | 0.0 | 0.00 | 0.00 | 0.00 | 48 | 1015.8 |
| 20260901031708 | 89 | 196 | 0.0 | 0.0 | 0.00 | 0.00 | 0.00 | 47 | 1015.9 |
| 20260901031203 | 89 | 199 | 0.0 | 0.0 | 0.00 | 0.00 | 0.00 | 47 | 1015.7 |
| 20260901030658 | 90 | 202 | 1.0 | 1.0 | 0.00 | 0.00 | 0.00 | 46 | 1015.8 |
| 20260901030153 | 90 | 203 | 0.0 | 0.0 | 0.00 | 0.00 | 0.00 | 46 | 1015.8 |
| 20260901025648 | 90 | 196 | 0.0 | 0.0 | 0.00 | 0.00 | 0.00 | 46 | 1015.6 |
| 20260901025143 | 90 | 195 | 0.0 | 0.0 | 0.00 | 0.00 | 0.00 | 46 | 1015.7 |
| 20260901024642 | 90 | 199 | 0.0 | 0.0 | 0.00 | 0.00 | 0.00 | 46 | 1015.4 |
| 20260901024141 | 91 | 197 | 0.0 | 0.0 | 0.00 | 0.00 | 0.00 | 45 | 1015.5 |
| 20260901023640 | 91 | 195 | 0.0 | 0.0 | 0.00 | 0.00 | 0.00 | 45 | 1015.4 |
| 20260901023135 | 91 | 200 | 0.0 | 0.0 | 0.00 | 0.00 | 0.00 | 44 | 1015.4 |
| 20260901022630 | 91 | 202 | 1.0 | 1.0 | 0.00 | 0.00 | 0.00 | 44 | 1015.1 |
| 20260901022126 | 91 | 197 | 0.0 | 0.0 | 0.00 | 0.00 | 0.00 | 44 | 1015.3 |
| 20260901021621 | 92 | 201 | 0.0 | 0.0 | 0.00 | 0.00 | 0.00 | 43 | 1015.1 |
| 20260901021116 | 92 | 191 | 0.0 | 1.0 | 0.00 | 0.00 | 0.00 | 43 | 1014.9 |
| 20260901020612 | 92 | 192 | 0.0 | 0.0 | 0.00 | 0.00 | 0.00 | 42 | 1015.0 |
| 20260901020107 | 92 | 193 | 0.0 | 1.0 | 0.00 | 0.00 | 0.00 | 42 | 1015.0 |
| 20260901015603 | 93 | 201 | 0.0 | 0.0 | 0.00 | 0.00 | 0.00 | 43 | 1015.1 |
| 20260901015102 | 93 | 187 | 0.0 | 0.0 | 0.00 | 0.00 | 0.00 | 42 | 1015.1 |
| 20260901014557 | 93 | 211 | 1.0 | 1.0 | 0.00 | 0.00 | 0.00 | 42 | 1015.1 |
| 20260901014053 | 93 | 195 | 0.0 | 1.0 | 0.00 | 0.00 | 0.00 | 42 | 1015.0 |
| 20260901013549 | 93 | 199 | 0.0 | 1.0 | 0.00 | 0.00 | 0.00 | 42 | 1015.0 |
| 20260901013045 | 93 | 190 | 0.0 | 1.0 | 0.00 | 0.00 | 0.00 | 42 | 1014.8 |
| 20260901012544 | 93 | 200 | 0.0 | 1.0 | 0.00 | 0.00 | 0.00 | 43 | 1014.9 |
| 20260901012039 | 94 | 171 | 0.0 | 1.0 | 0.00 | 0.00 | 0.00 | 43 | 1014.9 |
| 20260901011536 | 94 | 192 | 0.0 | 1.0 | 0.00 | 0.00 | 0.00 | 42 | 1014.6 |
| 20260901011033 | 95 | 176 | 1.0 | 1.0 | 0.00 | 0.00 | 0.00 | 41 | 1014.5 |
| 20260901010528 | 95 | 191 | 0.0 | 0.0 | 0.00 | 0.00 | 0.00 | 41 | 1014.8 |
| 20260901010022 | 95 | 168 | 1.0 | 1.0 | 0.00 | 0.00 | 0.00 | 40 | 1014.8 |
| 20260901005522 | 96 | 168 | 1.0 | 1.0 | 0.00 | 0.00 | 0.00 | 40 | 1014.6 |
| 20260901005018 | 96 | 168 | 1.0 | 1.0 | 0.00 | 0.00 | 0.00 | 39 | 1014.8 |
| 20260901004518 | 96 | 184 | 0.0 | 0.0 | 0.00 | 0.00 | 0.00 | 39 | 1014.5 |
| 20260901004013 | 96 | 151 | 2.0 | 2.0 | 0.00 | 0.00 | 0.00 | 39 | 1014.6 |
| 20260901003508 | 97 | 122 | 3.0 | 3.0 | 0.00 | 0.00 | 0.00 | 38 | 1014.6 |
| 20260901003006 | 97 | 160 | 3.0 | 3.0 | 0.00 | 0.00 | 0.00 | 38 | 1014.5 |
| 20260901002505 | 97 | 170 | 3.0 | 3.0 | 0.00 | 0.00 | 0.00 | 38 | 1014.7 |
| 20260901002000 | 98 | 114 | 3.0 | 3.0 | 0.00 | 0.00 | 0.00 | 37 | 1014.7 |
| 20260901001455 | 98 | 87 | 2.0 | 2.0 | 0.00 | 0.00 | 0.00 | 36 | 1014.5 |
| 20260901000951 | 98 | 97 | 1.0 | 1.0 | 0.00 | 0.00 | 0.00 | 36 | 1014.6 |
| 20260901000445 | 98 | 153 | 0.0 | 1.0 | 0.00 | 0.00 | 0.00 | 36 | 1014.7 |
| 20260831235944 | 99 | 195 | 0.0 | 0.0 | 0.00 | 0.00 | 0.00 | 36 | 1014.4 |
| 20260831235440 | 99 | 185 | 1.0 | 1.0 | 0.00 | 0.00 | 0.00 | 35 | 1014.5 |
| 20260831234935 | 99 | 193 | 2.0 | 2.0 | 0.00 | 0.00 | 0.00 | 35 | 1014.4 |
| 20260831234429 | 99 | 173 | 3.0 | 5.0 | 0.00 | 0.00 | 0.00 | 35 | 1014.8 |
| 20260831233925 | 99 | 151 | 1.0 | 2.0 | 0.00 | 0.00 | 0.00 | 35 | 1014.7 |
| 20260831233420 | 99 | 175 | 2.0 | 2.0 | 0.00 | 0.00 | 0.00 | 34 | 1014.7 |
| 20260831232915 | 99 | 147 | 2.0 | 3.0 | 0.00 | 0.00 | 0.00 | 34 | 1014.6 |
| 20260831232411 | 100 | 108 | 1.0 | 1.0 | 0.00 | 0.00 | 0.00 | 35 | 1014.4 |
| 20260831231907 | 100 | 210 | 2.0 | 2.0 | 0.00 | 0.00 | 0.00 | 33 | 1014.5 |
| 20260831231403 | 100 | 198 | 0.0 | 0.0 | 0.00 | 0.00 | 0.00 | 33 | 1014.6 |
| 20260831230858 | 100 | 139 | 1.0 | 2.0 | 0.00 | 0.00 | 0.00 | 33 | 1014.5 |
| 20260831230353 | 100 | 205 | 0.0 | 0.0 | 0.00 | 0.00 | 0.00 | 33 | 1014.4 |
| 20260831225847 | 100 | 223 | 1.0 | 1.0 | 0.00 | 0.00 | 0.00 | 32 | 1014.5 |
| 20260831225342 | 101 | 170 | 1.0 | 1.0 | 0.00 | 0.00 | 0.00 | 32 | 1014.5 |
| 20260831224837 | 100 | 156 | 1.0 | 2.0 | 0.00 | 0.00 | 0.00 | 33 | 1014.8 |
| 20260831224332 | 101 | 125 | 1.0 | 1.0 | 0.00 | 0.00 | 0.00 | 33 | 1014.7 |
| 20260831223827 | 101 | 200 | 1.0 | 1.0 | 0.00 | 0.00 | 0.00 | 33 | 1014.7 |
| 20260831223324 | 100 | 164 | 2.0 | 2.0 | 0.00 | 0.00 | 0.00 | 33 | 1014.9 |
| 20260831222820 | 102 | 112 | 1.0 | 3.0 | 0.00 | 0.00 | 0.00 | 33 | 1015.0 |
| 20260831222316 | 102 | 202 | 2.0 | 5.0 | 0.00 | 0.00 | 0.00 | 32 | 1015.2 |
| 20260831221811 | 101 | 160 | 1.0 | 2.0 | 0.00 | 0.00 | 0.00 | 33 | 1015.0 |
| 20260831221306 | 101 | 207 | 0.0 | 0.0 | 0.00 | 0.00 | 0.00 | 34 | 1015.2 |
| 20260831220806 | 101 | 199 | 0.0 | 0.0 | 0.00 | 0.00 | 0.00 | 34 | 1015.0 |
| 20260831220301 | 101 | 68 | 1.0 | 1.0 | 0.00 | 0.00 | 0.00 | 33 | 1014.9 |
| 20260831215756 | 100 | 136 | 3.0 | 3.0 | 0.00 | 0.00 | 0.00 | 33 | 1015.1 |
| 20260831215252 | 99 | 167 | 0.0 | 1.0 | 0.00 | 0.00 | 0.00 | 35 | 1015.0 |
| 20260831214749 | 99 | 195 | 0.0 | 1.0 | 0.00 | 0.00 | 0.00 | 35 | 1015.3 |
| 20260831214246 | 99 | 187 | 1.0 | 1.0 | 0.00 | 0.00 | 0.00 | 34 | 1015.2 |
| 20260831213741 | 100 | 80 | 3.0 | 5.0 | 0.00 | 0.00 | 0.00 | 33 | 1015.3 |
| 20260831213238 | 102 | 202 | 2.0 | 2.0 | 0.00 | 0.00 | 0.00 | 33 | 1015.4 |
| 20260831212737 | 102 | 80 | 1.0 | 1.0 | 0.00 | 0.00 | 0.00 | 34 | 1015.3 |
| 20260831212235 | 102 | 156 | 1.0 | 2.0 | 0.00 | 0.00 | 0.00 | 33 | 1015.2 |
| 20260831211732 | 102 | 167 | 2.0 | 2.0 | 0.00 | 0.00 | 0.00 | 33 | 1015.4 |
| 20260831211228 | 101 | 196 | 1.0 | 2.0 | 0.00 | 0.00 | 0.00 | 35 | 1015.5 |
| 20260831210722 | 101 | 88 | 2.0 | 2.0 | 0.00 | 0.00 | 0.00 | 35 | 1015.7 |
| 20260831210219 | 102 | 159 | 3.0 | 5.0 | 0.00 | 0.00 | 0.00 | 34 | 1015.5 |
| 20260831205718 | 102 | 194 | 3.0 | 5.0 | 0.00 | 0.00 | 0.00 | 34 | 1015.7 |
| 20260831205215 | 101 | 181 | 2.0 | 2.0 | 0.00 | 0.00 | 0.00 | 34 | 1015.8 |
| 20260831204714 | 100 | 106 | 2.0 | 2.0 | 0.00 | 0.00 | 0.00 | 35 | 1016.0 |
| 20260831204214 | 100 | 158 | 2.0 | 2.0 | 0.00 | 0.00 | 0.00 | 35 | 1016.0 |
| 20260831203708 | 101 | 65 | 0.0 | 1.0 | 0.00 | 0.00 | 0.00 | 34 | 1016.0 |
| 20260831203208 | 100 | 195 | 0.0 | 0.0 | 0.00 | 0.00 | 0.00 | 34 | 1016.1 |
| 20260831202706 | 102 | 63 | 2.0 | 2.0 | 0.00 | 0.00 | 0.00 | 34 | 1016.0 |
| 20260831202201 | 102 | 36 | 2.0 | 2.0 | 0.00 | 0.00 | 0.00 | 34 | 1016.2 |
| 20260831201655 | 101 | 52 | 1.0 | 1.0 | 0.00 | 0.00 | 0.00 | 32 | 1016.1 |
| 20260831201154 | 100 | 183 | 2.0 | 2.0 | 0.00 | 0.00 | 0.00 | 33 | 1016.4 |
| 20260831200651 | 100 | 183 | 0.0 | 0.0 | 0.00 | 0.00 | 0.00 | 34 | 1016.2 |
| 20260831200150 | 99 | 226 | 3.0 | 5.0 | 0.00 | 0.00 | 0.00 | 36 | 1016.5 |
| 20260831195646 | 100 | 115 | 1.0 | 2.0 | 0.00 | 0.00 | 0.00 | 36 | 1016.5 |
| 20260831195141 | 100 | 131 | 1.0 | 1.0 | 0.00 | 0.00 | 0.00 | 37 | 1016.6 |
| 20260831194636 | 100 | 220 | 4.0 | 6.0 | 0.00 | 0.00 | 0.00 | 37 | 1016.6 |
| 20260831194131 | 100 | 123 | 2.0 | 2.0 | 0.00 | 0.00 | 0.00 | 36 | 1016.7 |
| 20260831193626 | 100 | 67 | 1.0 | 2.0 | 0.00 | 0.00 | 0.00 | 36 | 1016.8 |
| 20260831193121 | 101 | 132 | 3.0 | 5.0 | 0.00 | 0.00 | 0.00 | 36 | 1017.1 |
| 20260831192616 | 100 | 128 | 1.0 | 1.0 | 0.00 | 0.00 | 0.00 | 37 | 1017.0 |
| 20260831192112 | 98 | 195 | 5.0 | 6.0 | 0.00 | 0.00 | 0.00 | 38 | 1016.9 |
| 20260831191608 | 98 | 125 | 4.0 | 6.0 | 0.00 | 0.00 | 0.00 | 38 | 1016.8 |
| 20260831191103 | 99 | 188 | 0.0 | 1.0 | 0.00 | 0.00 | 0.00 | 39 | 1017.0 |
| 20260831190558 | 100 | 2 | 2.0 | 2.0 | 0.00 | 0.00 | 0.00 | 38 | 1017.2 |
| 20260831190056 | 100 | 131 | 2.0 | 2.0 | 0.00 | 0.00 | 0.00 | 38 | 1017.0 |
| 20260831185553 | 100 | 118 | 3.0 | 5.0 | 0.00 | 0.00 | 0.00 | 38 | 1017.2 |
| 20260831185048 | 102 | 128 | 2.0 | 3.0 | 0.00 | 0.00 | 0.00 | 36 | 1017.3 |
| 20260831184548 | 101 | 226 | 3.0 | 3.0 | 0.00 | 0.00 | 0.00 | 37 | 1017.0 |
| 20260831184044 | 100 | 173 | 2.0 | 3.0 | 0.00 | 0.00 | 0.00 | 36 | 1017.3 |
| 20260831183542 | 99 | 224 | 1.0 | 1.0 | 0.00 | 0.00 | 0.00 | 38 | 1017.3 |
| 20260831183037 | 99 | 162 | 0.0 | 1.0 | 0.00 | 0.00 | 0.00 | 38 | 1017.6 |
| 20260831182536 | 99 | 129 | 7.0 | 11.0 | 0.00 | 0.00 | 0.00 | 37 | 1017.6 |
| 20260831182032 | 100 | 76 | 2.0 | 2.0 | 0.00 | 0.00 | 0.00 | 39 | 1017.5 |
| 20260831181527 | 98 | 182 | 2.0 | 3.0 | 0.00 | 0.00 | 0.00 | 39 | 1017.5 |
| 20260831181026 | 99 | 199 | 3.0 | 3.0 | 0.00 | 0.00 | 0.00 | 38 | 1017.9 |
| 20260831180521 | 99 | 146 | 4.0 | 6.0 | 0.00 | 0.00 | 0.00 | 39 | 1017.8 |
| 20260831180016 | 99 | 141 | 4.0 | 8.0 | 0.00 | 0.00 | 0.00 | 38 | 1017.8 |
| 20260831175512 | 97 | 85 | 3.0 | 3.0 | 0.00 | 0.00 | 0.00 | 41 | 1018.0 |
| 20260831175008 | 97 | 187 | 1.0 | 1.0 | 0.00 | 0.00 | 0.00 | 42 | 1018.0 |
| 20260831174503 | 98 | 198 | 6.0 | 7.0 | 0.00 | 0.00 | 0.00 | 42 | 1018.2 |
| 20260831174002 | 97 | 190 | 2.0 | 3.0 | 0.00 | 0.00 | 0.00 | 43 | 1018.2 |
| 20260831173501 | 99 | 191 | 2.0 | 2.0 | 0.00 | 0.00 | 0.00 | 43 | 1018.3 |
| 20260831172957 | 98 | 168 | 3.0 | 3.0 | 0.00 | 0.00 | 0.00 | 44 | 1018.5 |
| 20260831172452 | 97 | 271 | 2.0 | 2.0 | 0.00 | 0.00 | 0.00 | 43 | 1018.4 |
| 20260831171948 | 96 | 119 | 0.0 | 1.0 | 0.00 | 0.00 | 0.00 | 45 | 1018.4 |
| 20260831171443 | 96 | 175 | 5.0 | 6.0 | 0.00 | 0.00 | 0.00 | 44 | 1018.4 |
| 20260831170940 | 96 | 217 | 2.0 | 3.0 | 0.00 | 0.00 | 0.00 | 44 | 1018.7 |
| 20260831170436 | 95 | 197 | 4.0 | 5.0 | 0.00 | 0.00 | 0.00 | 46 | 1018.5 |
| 20260831165933 | 96 | 201 | 6.0 | 8.0 | 0.00 | 0.00 | 0.00 | 45 | 1018.6 |
| 20260831165428 | 97 | 180 | 7.0 | 10.0 | 0.00 | 0.00 | 0.00 | 44 | 1018.5 |
| 20260831164924 | 96 | 219 | 2.0 | 3.0 | 0.00 | 0.00 | 0.00 | 44 | 1018.4 |
| 20260831164420 | 96 | 171 | 1.0 | 1.0 | 0.00 | 0.00 | 0.00 | 45 | 1018.5 |
| 20260831163915 | 96 | 165 | 2.0 | 2.0 | 0.00 | 0.00 | 0.00 | 46 | 1018.6 |
| 20260831163411 | 95 | 128 | 3.0 | 3.0 | 0.00 | 0.00 | 0.00 | 47 | 1018.7 |
| 20260831162909 | 94 | 200 | 3.0 | 5.0 | 0.00 | 0.00 | 0.00 | 48 | 1018.7 |
| 20260831162405 | 94 | 191 | 4.0 | 5.0 | 0.00 | 0.00 | 0.00 | 49 | 1018.7 |
| 20260831161903 | 93 | 192 | 0.0 | 1.0 | 0.00 | 0.00 | 0.00 | 49 | 1019.0 |
| 20260831161400 | 94 | 198 | 5.0 | 6.0 | 0.00 | 0.00 | 0.00 | 48 | 1018.7 |
| 20260831160855 | 94 | 177 | 4.0 | 6.0 | 0.00 | 0.00 | 0.00 | 48 | 1019.0 |
| 20260831160349 | 93 | 200 | 5.0 | 6.0 | 0.00 | 0.00 | 0.00 | 48 | 1018.6 |
| 20260831155845 | 93 | 175 | 1.0 | 1.0 | 0.00 | 0.00 | 0.00 | 49 | 1018.7 |
| 20260831155344 | 92 | 200 | 2.0 | 5.0 | 0.00 | 0.00 | 0.00 | 50 | 1019.0 |
| 20260831154840 | 92 | 236 | 1.0 | 2.0 | 0.00 | 0.00 | 0.00 | 50 | 1018.6 |
| 20260831154337 | 92 | 183 | 6.0 | 7.0 | 0.00 | 0.00 | 0.00 | 50 | 1019.1 |
| 20260831153835 | 91 | 179 | 2.0 | 2.0 | 0.00 | 0.00 | 0.00 | 51 | 1018.6 |
| 20260831153331 | 91 | 236 | 2.0 | 2.0 | 0.00 | 0.00 | 0.00 | 52 | 1018.8 |
| 20260831152827 | 90 | 203 | 2.0 | 2.0 | 0.00 | 0.00 | 0.00 | 51 | 1018.8 |
| 20260831152322 | 90 | 188 | 2.0 | 3.0 | 0.00 | 0.00 | 0.00 | 52 | 1018.6 |
| 20260831151817 | 91 | 230 | 5.0 | 7.0 | 0.00 | 0.00 | 0.00 | 52 | 1018.9 |
| 20260831151316 | 90 | 276 | 1.0 | 2.0 | 0.00 | 0.00 | 0.00 | 55 | 1018.8 |
| 20260831150812 | 89 | 193 | 3.0 | 5.0 | 0.00 | 0.00 | 0.00 | 54 | 1018.6 |
| 20260831150307 | 89 | 189 | 3.0 | 5.0 | 0.00 | 0.00 | 0.00 | 54 | 1018.9 |
| 20260831145806 | 89 | 176 | 2.0 | 2.0 | 0.00 | 0.00 | 0.00 | 56 | 1018.8 |
| 20260831145306 | 88 | 177 | 2.0 | 2.0 | 0.00 | 0.00 | 0.00 | 56 | 1018.5 |
| 20260831144758 | 88 | 179 | 2.0 | 3.0 | 0.00 | 0.00 | 0.00 | 58 | 1018.4 |
| 20260831144254 | 87 | 250 | 1.0 | 2.0 | 0.00 | 0.00 | 0.00 | 58 | 1018.7 |
| 20260831143754 | 87 | 188 | 5.0 | 6.0 | 0.00 | 0.00 | 0.00 | 58 | 1018.7 |
| 20260831143249 | 87 | 169 | 3.0 | 3.0 | 0.00 | 0.00 | 0.00 | 61 | 1018.5 |
| 20260831142744 | 87 | 173 | 1.0 | 2.0 | 0.00 | 0.00 | 0.00 | 62 | 1018.3 |
| 20260831142240 | 87 | 166 | 4.0 | 5.0 | 0.00 | 0.00 | 0.00 | 61 | 1018.5 |
| 20260831141739 | 86 | 188 | 0.0 | 0.0 | 0.00 | 0.00 | 0.00 | 64 | 1018.5 |
| 20260831141234 | 86 | 174 | 1.0 | 2.0 | 0.00 | 0.00 | 0.00 | 65 | 1018.4 |
| 20260831140734 | 85 | 217 | 2.0 | 3.0 | 0.00 | 0.00 | 0.00 | 66 | 1018.6 |
| 20260831140228 | 84 | 200 | 2.0 | 3.0 | 0.00 | 0.00 | 0.00 | 67 | 1018.5 |
| 20260831135726 | 84 | 159 | 4.0 | 5.0 | 0.00 | 0.00 | 0.00 | 68 | 1018.4 |
| 20260831135222 | 83 | 183 | 1.0 | 1.0 | 0.00 | 0.00 | 0.00 | 70 | 1018.6 |
| 20260831134718 | 82 | 192 | 4.0 | 5.0 | 0.00 | 0.00 | 0.00 | 71 | 1018.4 |
| 20260831134214 | 82 | 203 | 1.0 | 1.0 | 0.00 | 0.00 | 0.00 | 72 | 1018.3 |
| 20260831133713 | 82 | 177 | 1.0 | 2.0 | 0.00 | 0.00 | 0.00 | 72 | 1018.4 |
| 20260831133207 | 81 | 149 | 2.0 | 3.0 | 0.00 | 0.00 | 0.00 | 72 | 1018.4 |
| 20260831132703 | 81 | 195 | 0.0 | 1.0 | 0.00 | 0.00 | 0.00 | 73 | 1018.3 |
| 20260831132202 | 81 | 188 | 1.0 | 1.0 | 0.00 | 0.00 | 0.00 | 73 | 1018.0 |
| 20260831131657 | 80 | 187 | 1.0 | 1.0 | 0.00 | 0.00 | 0.00 | 74 | 1018.1 |
| 20260831131154 | 80 | 194 | 0.0 | 0.0 | 0.00 | 0.00 | 0.00 | 74 | 1017.9 |
| 20260831130649 | 80 | 139 | 1.0 | 1.0 | 0.00 | 0.00 | 0.00 | 75 | 1017.8 |
| 20260831130144 | 80 | 192 | 0.0 | 1.0 | 0.00 | 0.00 | 0.00 | 75 | 1018.0 |
| 20260831125642 | 79 | 184 | 1.0 | 1.0 | 0.00 | 0.00 | 0.00 | 75 | 1018.0 |
| 20260831125138 | 79 | 198 | 1.0 | 1.0 | 0.00 | 0.00 | 0.00 | 75 | 1017.8 |
| 20260831124634 | 79 | 195 | 0.0 | 0.0 | 0.00 | 0.00 | 0.00 | 75 | 1017.9 |
| 20260831124130 | 79 | 194 | 0.0 | 0.0 | 0.00 | 0.00 | 0.00 | 75 | 1017.5 |
| 20260831123629 | 78 | 186 | 0.0 | 1.0 | 0.00 | 0.00 | 0.00 | 75 | 1017.6 |
| 20260831123129 | 78 | 196 | 0.0 | 0.0 | 0.00 | 0.00 | 0.00 | 75 | 1017.5 |
| 20260831122628 | 78 | 181 | 0.0 | 1.0 | 0.00 | 0.00 | 0.00 | 75 | 1017.5 |
| 20260831122125 | 78 | 197 | 0.0 | 1.0 | 0.00 | 0.00 | 0.00 | 75 | 1017.4 |
| 20260831121623 | 79 | 190 | 0.0 | 1.0 | 0.00 | 0.00 | 0.00 | 74 | 1017.4 |
| 20260831121120 | 79 | 199 | 0.0 | 1.0 | 0.00 | 0.00 | 0.00 | 74 | 1017.4 |
| 20260831120615 | 79 | 193 | 0.0 | 1.0 | 0.00 | 0.00 | 0.00 | 74 | 1017.2 |
| 20260831120110 | 79 | 194 | 0.0 | 0.0 | 0.00 | 0.00 | 0.00 | 73 | 1017.2 |
| 20260831115606 | 80 | 182 | 1.0 | 1.0 | 0.00 | 0.00 | 0.00 | 72 | 1017.2 |
| 20260831115101 | 80 | 175 | 1.0 | 1.0 | 0.00 | 0.00 | 0.00 | 72 | 1016.8 |